sensor_id;sensor_type;location;lat;lon;timestamp;temperature;humidity
5222;DHT22;2630;52.036;8.514;2023-05-07T00:00:39;13.40;99.90
5222;DHT22;2630;52.036;8.514;2023-05-07T00:03:05;13.40;99.90
5222;DHT22;2630;52.036;8.514;2023-05-07T00:05:32;13.40;99.90
5222;DHT22;2630;52.036;8.514;2023-05-07T00:12:50;13.30;99.90
5222;DHT22;2630;52.036;8.514;2023-05-07T00:15:16;13.30;99.90
5222;DHT22;2630;52.036;8.514;2023-05-07T00:20:08;13.20;99.90
5222;DHT22;2630;52.036;8.514;2023-05-07T00:22:33;13.10;99.90
5222;DHT22;2630;52.036;8.514;2023-05-07T00:24:59;13.10;99.90
5222;DHT22;2630;52.036;8.514;2023-05-07T00:27:25;13.20;99.90
5222;DHT22;2630;52.036;8.514;2023-05-07T00:29:50;13.20;99.90
5222;DHT22;2630;52.036;8.514;2023-05-07T00:32:16;13.20;99.90
5222;DHT22;2630;52.036;8.514;2023-05-07T00:34:42;13.20;99.90
5222;DHT22;2630;52.036;8.514;2023-05-07T00:42:00;13.20;99.90
5222;DHT22;2630;52.036;8.514;2023-05-07T00:46:52;13.10;99.90
5222;DHT22;2630;52.036;8.514;2023-05-07T00:49:19;13.10;99.90
5222;DHT22;2630;52.036;8.514;2023-05-07T00:51:46;13.10;99.90
5222;DHT22;2630;52.036;8.514;2023-05-07T00:54:11;13.00;99.90
5222;DHT22;2630;52.036;8.514;2023-05-07T00:56:38;13.00;99.90
5222;DHT22;2630;52.036;8.514;2023-05-07T00:59:05;13.00;99.90
5222;DHT22;2630;52.036;8.514;2023-05-07T01:01:31;13.00;99.90
5222;DHT22;2630;52.036;8.514;2023-05-07T01:03:57;13.00;99.90
5222;DHT22;2630;52.036;8.514;2023-05-07T01:08:49;13.00;99.90
5222;DHT22;2630;52.036;8.514;2023-05-07T01:13:43;12.90;99.90
5222;DHT22;2630;52.036;8.514;2023-05-07T01:16:09;13.00;99.90
5222;DHT22;2630;52.036;8.514;2023-05-07T01:18:35;13.00;99.90
5222;DHT22;2630;52.036;8.514;2023-05-07T01:21:01;13.00;99.90
5222;DHT22;2630;52.036;8.514;2023-05-07T01:25:55;12.90;99.90
5222;DHT22;2630;52.036;8.514;2023-05-07T01:30:53;12.80;99.90
5222;DHT22;2630;52.036;8.514;2023-05-07T01:33:21;12.80;99.90
5222;DHT22;2630;52.036;8.514;2023-05-07T01:35:50;12.80;99.90
5222;DHT22;2630;52.036;8.514;2023-05-07T01:38:17;12.80;99.90
5222;DHT22;2630;52.036;8.514;2023-05-07T01:40:43;12.80;99.90
5222;DHT22;2630;52.036;8.514;2023-05-07T01:43:09;12.80;99.90
5222;DHT22;2630;52.036;8.514;2023-05-07T01:48:03;12.80;99.90
5222;DHT22;2630;52.036;8.514;2023-05-07T01:52:55;12.80;99.90
5222;DHT22;2630;52.036;8.514;2023-05-07T01:55:21;12.70;99.90
5222;DHT22;2630;52.036;8.514;2023-05-07T01:57:47;12.70;99.90
5222;DHT22;2630;52.036;8.514;2023-05-07T02:00:12;12.70;99.90
5222;DHT22;2630;52.036;8.514;2023-05-07T02:05:04;12.70;99.90
5222;DHT22;2630;52.036;8.514;2023-05-07T02:07:30;12.70;99.90
5222;DHT22;2630;52.036;8.514;2023-05-07T02:09:55;12.60;99.90
5222;DHT22;2630;52.036;8.514;2023-05-07T02:12:22;12.50;99.90
5222;DHT22;2630;52.036;8.514;2023-05-07T02:19:39;12.50;99.90
5222;DHT22;2630;52.036;8.514;2023-05-07T02:24:31;12.50;99.90
5222;DHT22;2630;52.036;8.514;2023-05-07T02:26:56;12.50;99.90
5222;DHT22;2630;52.036;8.514;2023-05-07T02:29:22;12.50;99.90
5222;DHT22;2630;52.036;8.514;2023-05-07T02:31:48;12.50;99.90
5222;DHT22;2630;52.036;8.514;2023-05-07T02:34:18;12.50;99.90
5222;DHT22;2630;52.036;8.514;2023-05-07T02:39:11;12.40;99.90
5222;DHT22;2630;52.036;8.514;2023-05-07T02:41:37;12.40;99.90
5222;DHT22;2630;52.036;8.514;2023-05-07T02:44:02;12.50;99.90
5222;DHT22;2630;52.036;8.514;2023-05-07T02:46:28;12.40;99.90
5222;DHT22;2630;52.036;8.514;2023-05-07T02:48:54;12.40;99.90
5222;DHT22;2630;52.036;8.514;2023-05-07T02:51:21;12.40;99.90
5222;DHT22;2630;52.036;8.514;2023-05-07T02:53:46;12.30;99.90
5222;DHT22;2630;52.036;8.514;2023-05-07T02:58:44;12.30;99.90
5222;DHT22;2630;52.036;8.514;2023-05-07T03:01:10;12.30;99.90
5222;DHT22;2630;52.036;8.514;2023-05-07T03:03:36;12.30;99.90
5222;DHT22;2630;52.036;8.514;2023-05-07T03:08:27;12.30;99.90
5222;DHT22;2630;52.036;8.514;2023-05-07T03:10:53;12.30;99.90
5222;DHT22;2630;52.036;8.514;2023-05-07T03:13:18;12.30;99.90
5222;DHT22;2630;52.036;8.514;2023-05-07T03:15:44;12.30;99.90
5222;DHT22;2630;52.036;8.514;2023-05-07T03:18:10;12.30;99.90
5222;DHT22;2630;52.036;8.514;2023-05-07T03:20:36;12.20;99.90
5222;DHT22;2630;52.036;8.514;2023-05-07T03:23:02;12.20;99.90
5222;DHT22;2630;52.036;8.514;2023-05-07T03:25:28;12.10;99.90
5222;DHT22;2630;52.036;8.514;2023-05-07T03:27:55;12.10;99.90
5222;DHT22;2630;52.036;8.514;2023-05-07T03:30:21;12.10;99.90
5222;DHT22;2630;52.036;8.514;2023-05-07T03:32:46;12.10;99.90
5222;DHT22;2630;52.036;8.514;2023-05-07T03:35:12;12.10;99.90
5222;DHT22;2630;52.036;8.514;2023-05-07T03:37:38;12.00;99.90
5222;DHT22;2630;52.036;8.514;2023-05-07T03:40:04;12.00;99.90
5222;DHT22;2630;52.036;8.514;2023-05-07T03:42:30;12.00;99.90
5222;DHT22;2630;52.036;8.514;2023-05-07T03:44:56;12.00;99.90
5222;DHT22;2630;52.036;8.514;2023-05-07T03:47:21;12.00;99.90
5222;DHT22;2630;52.036;8.514;2023-05-07T03:54:40;12.00;99.90
5222;DHT22;2630;52.036;8.514;2023-05-07T03:57:06;12.00;99.90
5222;DHT22;2630;52.036;8.514;2023-05-07T03:59:31;12.00;99.90
5222;DHT22;2630;52.036;8.514;2023-05-07T04:01:57;12.10;99.90
5222;DHT22;2630;52.036;8.514;2023-05-07T04:04:23;12.10;99.90
5222;DHT22;2630;52.036;8.514;2023-05-07T04:06:49;12.10;99.90
5222;DHT22;2630;52.036;8.514;2023-05-07T04:09:14;12.10;99.90
5222;DHT22;2630;52.036;8.514;2023-05-07T04:11:40;12.00;99.90
5222;DHT22;2630;52.036;8.514;2023-05-07T04:14:06;12.00;99.90
5222;DHT22;2630;52.036;8.514;2023-05-07T04:16:31;12.00;99.90
5222;DHT22;2630;52.036;8.514;2023-05-07T04:18:57;12.00;99.90
5222;DHT22;2630;52.036;8.514;2023-05-07T04:21:22;12.00;99.90
5222;DHT22;2630;52.036;8.514;2023-05-07T04:23:48;12.00;99.90
5222;DHT22;2630;52.036;8.514;2023-05-07T04:26:15;12.00;99.90
5222;DHT22;2630;52.036;8.514;2023-05-07T04:28:41;12.00;99.90
5222;DHT22;2630;52.036;8.514;2023-05-07T04:31:07;11.90;99.90
5222;DHT22;2630;52.036;8.514;2023-05-07T04:33:33;12.00;99.90
5222;DHT22;2630;52.036;8.514;2023-05-07T04:36:01;12.00;99.90
5222;DHT22;2630;52.036;8.514;2023-05-07T04:38:32;12.00;99.90
5222;DHT22;2630;52.036;8.514;2023-05-07T04:41:02;12.10;99.90
5222;DHT22;2630;52.036;8.514;2023-05-07T04:43:28;12.00;99.90
5222;DHT22;2630;52.036;8.514;2023-05-07T04:48:19;12.00;99.90
5222;DHT22;2630;52.036;8.514;2023-05-07T04:50:49;12.00;99.90
5222;DHT22;2630;52.036;8.514;2023-05-07T04:53:15;12.00;99.90
5222;DHT22;2630;52.036;8.514;2023-05-07T04:55:41;12.10;99.90
5222;DHT22;2630;52.036;8.514;2023-05-07T04:58:07;12.00;99.90
5222;DHT22;2630;52.036;8.514;2023-05-07T05:00:33;12.10;99.90
5222;DHT22;2630;52.036;8.514;2023-05-07T05:02:59;12.10;99.90
5222;DHT22;2630;52.036;8.514;2023-05-07T05:05:24;12.10;99.90
5222;DHT22;2630;52.036;8.514;2023-05-07T05:10:17;12.20;99.90
5222;DHT22;2630;52.036;8.514;2023-05-07T05:20:02;12.30;99.90
5222;DHT22;2630;52.036;8.514;2023-05-07T05:22:27;12.40;99.90
5222;DHT22;2630;52.036;8.514;2023-05-07T05:27:21;12.40;99.90
5222;DHT22;2630;52.036;8.514;2023-05-07T05:29:46;12.40;99.90
5222;DHT22;2630;52.036;8.514;2023-05-07T05:32:12;12.40;99.90
5222;DHT22;2630;52.036;8.514;2023-05-07T05:34:37;12.50;99.90
5222;DHT22;2630;52.036;8.514;2023-05-07T05:37:03;12.60;99.90
5222;DHT22;2630;52.036;8.514;2023-05-07T05:39:28;12.70;99.90
5222;DHT22;2630;52.036;8.514;2023-05-07T05:41:54;12.70;99.90
5222;DHT22;2630;52.036;8.514;2023-05-07T05:44:20;12.80;99.90
5222;DHT22;2630;52.036;8.514;2023-05-07T05:46:45;12.90;99.90
5222;DHT22;2630;52.036;8.514;2023-05-07T05:49:11;13.10;99.90
5222;DHT22;2630;52.036;8.514;2023-05-07T05:54:03;13.30;99.90
5222;DHT22;2630;52.036;8.514;2023-05-07T05:56:28;13.50;99.90
5222;DHT22;2630;52.036;8.514;2023-05-07T06:01:20;13.60;99.90
5222;DHT22;2630;52.036;8.514;2023-05-07T06:03:45;13.50;99.90
5222;DHT22;2630;52.036;8.514;2023-05-07T06:08:37;13.60;99.90
5222;DHT22;2630;52.036;8.514;2023-05-07T06:11:02;13.60;99.90
5222;DHT22;2630;52.036;8.514;2023-05-07T06:13:28;13.70;99.90
5222;DHT22;2630;52.036;8.514;2023-05-07T06:15:54;13.70;99.90
5222;DHT22;2630;52.036;8.514;2023-05-07T06:20:45;13.90;99.90
5222;DHT22;2630;52.036;8.514;2023-05-07T06:23:11;13.90;99.90
5222;DHT22;2630;52.036;8.514;2023-05-07T06:25:36;13.90;99.90
5222;DHT22;2630;52.036;8.514;2023-05-07T06:30:28;13.90;99.90
5222;DHT22;2630;52.036;8.514;2023-05-07T06:35:20;13.90;99.90
5222;DHT22;2630;52.036;8.514;2023-05-07T06:42:37;14.00;99.90
5222;DHT22;2630;52.036;8.514;2023-05-07T06:45:04;14.00;99.90
5222;DHT22;2630;52.036;8.514;2023-05-07T06:47:29;13.90;99.90
5222;DHT22;2630;52.036;8.514;2023-05-07T06:57:13;14.20;99.90
5222;DHT22;2630;52.036;8.514;2023-05-07T07:02:05;14.50;99.90
5222;DHT22;2630;52.036;8.514;2023-05-07T07:04:31;14.60;99.90
5222;DHT22;2630;52.036;8.514;2023-05-07T07:06:56;14.60;99.90
5222;DHT22;2630;52.036;8.514;2023-05-07T07:11:48;15.00;99.90
5222;DHT22;2630;52.036;8.514;2023-05-07T07:16:40;15.70;99.90
5222;DHT22;2630;52.036;8.514;2023-05-07T07:19:06;16.00;99.90
5222;DHT22;2630;52.036;8.514;2023-05-07T07:21:31;16.30;99.90
5222;DHT22;2630;52.036;8.514;2023-05-07T07:26:23;16.30;99.90
5222;DHT22;2630;52.036;8.514;2023-05-07T07:31:15;16.10;99.90
5222;DHT22;2630;52.036;8.514;2023-05-07T07:36:07;15.90;99.90
5222;DHT22;2630;52.036;8.514;2023-05-07T07:40:59;15.70;99.90
5222;DHT22;2630;52.036;8.514;2023-05-07T07:45:51;15.80;99.90
5222;DHT22;2630;52.036;8.514;2023-05-07T07:48:17;15.80;99.90
5222;DHT22;2630;52.036;8.514;2023-05-07T07:55:38;15.80;99.90
5222;DHT22;2630;52.036;8.514;2023-05-07T07:58:04;16.00;99.90
5222;DHT22;2630;52.036;8.514;2023-05-07T08:00:30;16.10;99.90
5222;DHT22;2630;52.036;8.514;2023-05-07T08:02:56;16.30;99.90
5222;DHT22;2630;52.036;8.514;2023-05-07T08:05:22;16.40;99.90
5222;DHT22;2630;52.036;8.514;2023-05-07T08:07:47;16.40;99.90
5222;DHT22;2630;52.036;8.514;2023-05-07T08:12:48;16.60;99.90
5222;DHT22;2630;52.036;8.514;2023-05-07T08:17:40;17.00;99.90
5222;DHT22;2630;52.036;8.514;2023-05-07T08:20:06;17.10;99.90
5222;DHT22;2630;52.036;8.514;2023-05-07T08:25:00;17.20;99.90
5222;DHT22;2630;52.036;8.514;2023-05-07T08:27:26;17.50;99.90
5222;DHT22;2630;52.036;8.514;2023-05-07T08:29:52;17.80;99.90
5222;DHT22;2630;52.036;8.514;2023-05-07T08:32:17;18.10;99.90
5222;DHT22;2630;52.036;8.514;2023-05-07T08:34:43;18.10;99.90
5222;DHT22;2630;52.036;8.514;2023-05-07T08:39:34;17.90;99.90
5222;DHT22;2630;52.036;8.514;2023-05-07T08:42:00;17.90;99.90
5222;DHT22;2630;52.036;8.514;2023-05-07T08:44:33;18.30;99.90
5222;DHT22;2630;52.036;8.514;2023-05-07T08:47:01;18.40;99.90
5222;DHT22;2630;52.036;8.514;2023-05-07T08:49:27;18.50;99.90
5222;DHT22;2630;52.036;8.514;2023-05-07T08:51:53;18.60;99.90
5222;DHT22;2630;52.036;8.514;2023-05-07T08:54:20;18.30;99.90
5222;DHT22;2630;52.036;8.514;2023-05-07T08:56:46;17.80;99.90
5222;DHT22;2630;52.036;8.514;2023-05-07T08:59:12;17.70;99.90
5222;DHT22;2630;52.036;8.514;2023-05-07T09:01:37;17.60;99.90
5222;DHT22;2630;52.036;8.514;2023-05-07T09:04:04;17.50;99.90
5222;DHT22;2630;52.036;8.514;2023-05-07T09:06:29;17.30;99.90
5222;DHT22;2630;52.036;8.514;2023-05-07T09:11:23;17.50;99.90
5222;DHT22;2630;52.036;8.514;2023-05-07T09:13:53;17.60;99.90
5222;DHT22;2630;52.036;8.514;2023-05-07T09:16:21;17.50;99.90
5222;DHT22;2630;52.036;8.514;2023-05-07T09:18:48;17.30;99.90
5222;DHT22;2630;52.036;8.514;2023-05-07T09:21:17;17.20;99.90
5222;DHT22;2630;52.036;8.514;2023-05-07T09:23:43;17.30;99.90
5222;DHT22;2630;52.036;8.514;2023-05-07T09:26:08;17.20;99.90
5222;DHT22;2630;52.036;8.514;2023-05-07T09:28:43;17.30;99.90
5222;DHT22;2630;52.036;8.514;2023-05-07T09:31:10;17.70;99.90
5222;DHT22;2630;52.036;8.514;2023-05-07T09:33:35;18.10;99.90
5222;DHT22;2630;52.036;8.514;2023-05-07T09:36:08;18.30;99.90
5222;DHT22;2630;52.036;8.514;2023-05-07T09:38:36;18.10;99.90
5222;DHT22;2630;52.036;8.514;2023-05-07T09:41:06;17.90;99.90
5222;DHT22;2630;52.036;8.514;2023-05-07T09:43:37;17.80;99.90
5222;DHT22;2630;52.036;8.514;2023-05-07T09:46:09;18.00;99.90
5222;DHT22;2630;52.036;8.514;2023-05-07T09:48:41;18.20;99.90
5222;DHT22;2630;52.036;8.514;2023-05-07T09:51:23;19.10;99.90
5222;DHT22;2630;52.036;8.514;2023-05-07T09:53:52;19.60;99.90
5222;DHT22;2630;52.036;8.514;2023-05-07T09:58:46;20.10;99.90
5222;DHT22;2630;52.036;8.514;2023-05-07T10:03:40;20.20;99.90
5222;DHT22;2630;52.036;8.514;2023-05-07T10:08:36;21.00;99.90
5222;DHT22;2630;52.036;8.514;2023-05-07T10:11:03;21.80;99.90
5222;DHT22;2630;52.036;8.514;2023-05-07T10:15:56;21.70;99.90
5222;DHT22;2630;52.036;8.514;2023-05-07T10:18:22;22.40;99.90
5222;DHT22;2630;52.036;8.514;2023-05-07T10:20:50;23.20;99.90
5222;DHT22;2630;52.036;8.514;2023-05-07T10:23:23;23.80;99.90
5222;DHT22;2630;52.036;8.514;2023-05-07T10:25:50;23.70;99.90
5222;DHT22;2630;52.036;8.514;2023-05-07T10:28:18;23.50;99.90
5222;DHT22;2630;52.036;8.514;2023-05-07T10:31:26;22.70;99.90
5222;DHT22;2630;52.036;8.514;2023-05-07T10:33:58;22.30;99.90
5222;DHT22;2630;52.036;8.514;2023-05-07T10:36:24;22.20;99.90
5222;DHT22;2630;52.036;8.514;2023-05-07T10:38:51;21.30;99.90
5222;DHT22;2630;52.036;8.514;2023-05-07T10:41:17;21.30;99.90
5222;DHT22;2630;52.036;8.514;2023-05-07T10:43:45;22.10;99.90
5222;DHT22;2630;52.036;8.514;2023-05-07T10:46:11;22.70;99.90
5222;DHT22;2630;52.036;8.514;2023-05-07T10:56:35;22.10;99.90
5222;DHT22;2630;52.036;8.514;2023-05-07T11:04:21;21.00;99.90
5222;DHT22;2630;52.036;8.514;2023-05-07T11:15:10;19.90;99.90
5222;DHT22;2630;52.036;8.514;2023-05-07T11:17:58;20.00;99.90
5222;DHT22;2630;52.036;8.514;2023-05-07T11:26:02;20.30;99.90
5222;DHT22;2630;52.036;8.514;2023-05-07T11:28:29;20.20;99.90
5222;DHT22;2630;52.036;8.514;2023-05-07T11:33:22;19.60;99.90
5222;DHT22;2630;52.036;8.514;2023-05-07T11:35:48;19.30;99.90
5222;DHT22;2630;52.036;8.514;2023-05-07T11:38:13;19.20;99.90
5222;DHT22;2630;52.036;8.514;2023-05-07T11:40:49;19.10;99.90
5222;DHT22;2630;52.036;8.514;2023-05-07T11:43:15;19.10;99.90
5222;DHT22;2630;52.036;8.514;2023-05-07T11:48:06;19.40;99.90
5222;DHT22;2630;52.036;8.514;2023-05-07T11:50:32;19.50;99.90
5222;DHT22;2630;52.036;8.514;2023-05-07T11:52:58;19.80;99.90
5222;DHT22;2630;52.036;8.514;2023-05-07T11:55:24;20.00;99.90
5222;DHT22;2630;52.036;8.514;2023-05-07T11:57:51;20.20;99.90
5222;DHT22;2630;52.036;8.514;2023-05-07T12:00:17;20.00;99.90
5222;DHT22;2630;52.036;8.514;2023-05-07T12:02:45;19.90;99.90
5222;DHT22;2630;52.036;8.514;2023-05-07T12:05:10;19.80;99.90
5222;DHT22;2630;52.036;8.514;2023-05-07T12:07:36;19.80;99.90
5222;DHT22;2630;52.036;8.514;2023-05-07T12:10:05;20.00;99.90
5222;DHT22;2630;52.036;8.514;2023-05-07T12:12:38;20.30;99.90
5222;DHT22;2630;52.036;8.514;2023-05-07T12:17:31;20.30;99.90
5222;DHT22;2630;52.036;8.514;2023-05-07T12:19:56;20.40;99.90
5222;DHT22;2630;52.036;8.514;2023-05-07T12:22:22;20.40;99.90
5222;DHT22;2630;52.036;8.514;2023-05-07T12:24:49;20.30;99.90
5222;DHT22;2630;52.036;8.514;2023-05-07T12:27:15;20.30;99.90
5222;DHT22;2630;52.036;8.514;2023-05-07T12:34:41;20.40;99.90
5222;DHT22;2630;52.036;8.514;2023-05-07T12:37:06;20.40;99.90
5222;DHT22;2630;52.036;8.514;2023-05-07T12:39:32;20.20;99.90
5222;DHT22;2630;52.036;8.514;2023-05-07T12:41:59;20.00;99.90
5222;DHT22;2630;52.036;8.514;2023-05-07T12:44:34;19.90;99.90
5222;DHT22;2630;52.036;8.514;2023-05-07T12:47:03;20.00;99.90
5222;DHT22;2630;52.036;8.514;2023-05-07T12:49:28;19.90;99.90
5222;DHT22;2630;52.036;8.514;2023-05-07T12:54:30;19.60;99.90
5222;DHT22;2630;52.036;8.514;2023-05-07T12:57:04;19.60;99.90
5222;DHT22;2630;52.036;8.514;2023-05-07T12:59:40;19.40;99.90
5222;DHT22;2630;52.036;8.514;2023-05-07T13:02:07;19.50;99.90
5222;DHT22;2630;52.036;8.514;2023-05-07T13:06:59;19.90;99.90
5222;DHT22;2630;52.036;8.514;2023-05-07T13:09:25;19.80;99.90
5222;DHT22;2630;52.036;8.514;2023-05-07T13:11:50;19.80;99.90
5222;DHT22;2630;52.036;8.514;2023-05-07T13:14:16;19.80;99.90
5222;DHT22;2630;52.036;8.514;2023-05-07T13:16:42;20.00;99.90
5222;DHT22;2630;52.036;8.514;2023-05-07T13:19:07;20.10;99.90
5222;DHT22;2630;52.036;8.514;2023-05-07T13:21:33;20.20;99.90
5222;DHT22;2630;52.036;8.514;2023-05-07T13:23:58;20.30;99.90
5222;DHT22;2630;52.036;8.514;2023-05-07T13:26:25;20.30;99.90
5222;DHT22;2630;52.036;8.514;2023-05-07T13:28:51;20.20;99.90
5222;DHT22;2630;52.036;8.514;2023-05-07T13:31:17;19.90;99.90
5222;DHT22;2630;52.036;8.514;2023-05-07T13:33:43;19.80;99.90
5222;DHT22;2630;52.036;8.514;2023-05-07T13:36:09;19.70;99.90
5222;DHT22;2630;52.036;8.514;2023-05-07T13:43:27;19.30;99.90
5222;DHT22;2630;52.036;8.514;2023-05-07T13:45:52;19.30;99.90
5222;DHT22;2630;52.036;8.514;2023-05-07T13:50:44;19.10;99.90
5222;DHT22;2630;52.036;8.514;2023-05-07T13:53:09;19.20;99.90
5222;DHT22;2630;52.036;8.514;2023-05-07T13:55:35;19.10;99.90
5222;DHT22;2630;52.036;8.514;2023-05-07T13:58:02;19.20;99.90
5222;DHT22;2630;52.036;8.514;2023-05-07T14:00:28;19.30;99.90
5222;DHT22;2630;52.036;8.514;2023-05-07T14:02:55;19.40;99.90
5222;DHT22;2630;52.036;8.514;2023-05-07T14:05:22;19.30;99.90
5222;DHT22;2630;52.036;8.514;2023-05-07T14:07:51;19.20;99.90
5222;DHT22;2630;52.036;8.514;2023-05-07T14:10:18;19.00;99.90
5222;DHT22;2630;52.036;8.514;2023-05-07T14:15:10;19.00;99.90
5222;DHT22;2630;52.036;8.514;2023-05-07T14:20:02;18.80;99.90
5222;DHT22;2630;52.036;8.514;2023-05-07T14:22:28;18.70;99.90
5222;DHT22;2630;52.036;8.514;2023-05-07T14:24:53;18.60;99.90
5222;DHT22;2630;52.036;8.514;2023-05-07T14:27:19;18.50;99.90
5222;DHT22;2630;52.036;8.514;2023-05-07T14:29:45;18.40;99.90
5222;DHT22;2630;52.036;8.514;2023-05-07T14:32:11;18.30;99.90
5222;DHT22;2630;52.036;8.514;2023-05-07T14:34:36;18.30;99.90
5222;DHT22;2630;52.036;8.514;2023-05-07T14:37:03;18.30;99.90
5222;DHT22;2630;52.036;8.514;2023-05-07T14:41:55;18.00;99.90
5222;DHT22;2630;52.036;8.514;2023-05-07T14:44:21;17.90;99.90
5222;DHT22;2630;52.036;8.514;2023-05-07T14:46:47;17.80;99.90
5222;DHT22;2630;52.036;8.514;2023-05-07T14:49:14;17.80;99.90
5222;DHT22;2630;52.036;8.514;2023-05-07T14:51:45;17.80;99.90
5222;DHT22;2630;52.036;8.514;2023-05-07T14:54:12;17.80;99.90
5222;DHT22;2630;52.036;8.514;2023-05-07T15:01:29;17.70;99.90
5222;DHT22;2630;52.036;8.514;2023-05-07T15:03:55;17.80;99.90
5222;DHT22;2630;52.036;8.514;2023-05-07T15:06:21;17.80;99.90
5222;DHT22;2630;52.036;8.514;2023-05-07T15:08:47;17.90;99.90
5222;DHT22;2630;52.036;8.514;2023-05-07T15:11:14;18.00;99.90
5222;DHT22;2630;52.036;8.514;2023-05-07T15:13:41;18.00;99.90
5222;DHT22;2630;52.036;8.514;2023-05-07T15:16:06;18.00;99.90
5222;DHT22;2630;52.036;8.514;2023-05-07T15:18:32;17.90;99.90
5222;DHT22;2630;52.036;8.514;2023-05-07T15:20:57;17.90;99.90
5222;DHT22;2630;52.036;8.514;2023-05-07T15:25:49;17.90;99.90
5222;DHT22;2630;52.036;8.514;2023-05-07T15:28:15;17.90;99.90
5222;DHT22;2630;52.036;8.514;2023-05-07T15:30:41;18.00;99.90
5222;DHT22;2630;52.036;8.514;2023-05-07T15:33:06;18.10;99.90
5222;DHT22;2630;52.036;8.514;2023-05-07T15:35:32;18.00;99.90
5222;DHT22;2630;52.036;8.514;2023-05-07T15:37:57;17.90;99.90
5222;DHT22;2630;52.036;8.514;2023-05-07T15:40:23;17.90;99.90
5222;DHT22;2630;52.036;8.514;2023-05-07T15:42:48;17.80;99.90
5222;DHT22;2630;52.036;8.514;2023-05-07T15:47:40;17.90;99.90
5222;DHT22;2630;52.036;8.514;2023-05-07T15:50:06;17.90;99.90
5222;DHT22;2630;52.036;8.514;2023-05-07T15:52:32;17.90;99.90
5222;DHT22;2630;52.036;8.514;2023-05-07T15:54:58;18.00;99.90
5222;DHT22;2630;52.036;8.514;2023-05-07T15:57:24;17.90;99.90
5222;DHT22;2630;52.036;8.514;2023-05-07T15:59:50;17.70;99.90
5222;DHT22;2630;52.036;8.514;2023-05-07T16:02:16;17.70;99.90
5222;DHT22;2630;52.036;8.514;2023-05-07T16:04:41;17.70;99.90
5222;DHT22;2630;52.036;8.514;2023-05-07T16:07:07;17.70;99.90
5222;DHT22;2630;52.036;8.514;2023-05-07T16:09:33;17.80;99.90
5222;DHT22;2630;52.036;8.514;2023-05-07T16:12:01;17.80;99.90
5222;DHT22;2630;52.036;8.514;2023-05-07T16:14:28;17.90;99.90
5222;DHT22;2630;52.036;8.514;2023-05-07T16:21:45;17.80;99.90
5222;DHT22;2630;52.036;8.514;2023-05-07T16:24:11;17.70;99.90
5222;DHT22;2630;52.036;8.514;2023-05-07T16:26:36;17.70;99.90
5222;DHT22;2630;52.036;8.514;2023-05-07T16:29:03;17.70;99.90
5222;DHT22;2630;52.036;8.514;2023-05-07T16:31:29;17.60;99.90
5222;DHT22;2630;52.036;8.514;2023-05-07T16:36:21;17.50;99.90
5222;DHT22;2630;52.036;8.514;2023-05-07T16:38:46;17.50;99.90
5222;DHT22;2630;52.036;8.514;2023-05-07T16:41:12;17.50;99.90
5222;DHT22;2630;52.036;8.514;2023-05-07T16:43:37;17.50;99.90
5222;DHT22;2630;52.036;8.514;2023-05-07T16:46:03;17.50;99.90
5222;DHT22;2630;52.036;8.514;2023-05-07T16:48:29;17.50;99.90
5222;DHT22;2630;52.036;8.514;2023-05-07T16:53:20;17.40;99.90
5222;DHT22;2630;52.036;8.514;2023-05-07T16:55:46;17.40;99.90
5222;DHT22;2630;52.036;8.514;2023-05-07T16:58:11;17.30;99.90
5222;DHT22;2630;52.036;8.514;2023-05-07T17:00:38;17.30;99.90
5222;DHT22;2630;52.036;8.514;2023-05-07T17:03:04;17.20;99.90
5222;DHT22;2630;52.036;8.514;2023-05-07T17:05:30;17.30;99.90
5222;DHT22;2630;52.036;8.514;2023-05-07T17:07:56;17.20;99.90
5222;DHT22;2630;52.036;8.514;2023-05-07T17:10:23;17.20;99.90
5222;DHT22;2630;52.036;8.514;2023-05-07T17:12:50;17.20;99.90
5222;DHT22;2630;52.036;8.514;2023-05-07T17:15:15;17.10;99.90
5222;DHT22;2630;52.036;8.514;2023-05-07T17:17:41;17.00;99.90
5222;DHT22;2630;52.036;8.514;2023-05-07T17:20:07;17.00;99.90
5222;DHT22;2630;52.036;8.514;2023-05-07T17:22:33;17.00;99.90
5222;DHT22;2630;52.036;8.514;2023-05-07T17:24:58;17.00;99.90
5222;DHT22;2630;52.036;8.514;2023-05-07T17:27:25;17.00;99.90
5222;DHT22;2630;52.036;8.514;2023-05-07T17:29:51;16.90;99.90
5222;DHT22;2630;52.036;8.514;2023-05-07T17:32:16;16.80;99.90
5222;DHT22;2630;52.036;8.514;2023-05-07T17:34:42;16.80;99.90
5222;DHT22;2630;52.036;8.514;2023-05-07T17:39:34;16.70;99.90
5222;DHT22;2630;52.036;8.514;2023-05-07T17:41:59;16.70;99.90
5222;DHT22;2630;52.036;8.514;2023-05-07T17:44:25;16.60;99.90
5222;DHT22;2630;52.036;8.514;2023-05-07T17:46:50;16.60;99.90
5222;DHT22;2630;52.036;8.514;2023-05-07T17:49:16;16.50;99.90
5222;DHT22;2630;52.036;8.514;2023-05-07T17:51:41;16.50;99.90
5222;DHT22;2630;52.036;8.514;2023-05-07T17:54:07;16.40;99.90
5222;DHT22;2630;52.036;8.514;2023-05-07T17:56:33;16.30;99.90
5222;DHT22;2630;52.036;8.514;2023-05-07T17:58:58;16.30;99.90
5222;DHT22;2630;52.036;8.514;2023-05-07T18:03:50;16.20;99.90
5222;DHT22;2630;52.036;8.514;2023-05-07T18:06:15;16.10;99.90
5222;DHT22;2630;52.036;8.514;2023-05-07T18:08:47;16.00;99.90
5222;DHT22;2630;52.036;8.514;2023-05-07T18:13:38;15.90;99.90
5222;DHT22;2630;52.036;8.514;2023-05-07T18:16:04;15.80;99.90
5222;DHT22;2630;52.036;8.514;2023-05-07T18:18:30;15.70;99.90
5222;DHT22;2630;52.036;8.514;2023-05-07T18:20:57;15.70;99.90
5222;DHT22;2630;52.036;8.514;2023-05-07T18:23:23;15.60;99.90
5222;DHT22;2630;52.036;8.514;2023-05-07T18:25:48;15.50;99.90
5222;DHT22;2630;52.036;8.514;2023-05-07T18:28:14;15.60;99.90
5222;DHT22;2630;52.036;8.514;2023-05-07T18:33:06;15.50;99.90
5222;DHT22;2630;52.036;8.514;2023-05-07T18:35:32;15.40;99.90
5222;DHT22;2630;52.036;8.514;2023-05-07T18:37:58;15.30;99.90
5222;DHT22;2630;52.036;8.514;2023-05-07T18:40:23;15.20;99.90
5222;DHT22;2630;52.036;8.514;2023-05-07T18:42:49;15.20;99.90
5222;DHT22;2630;52.036;8.514;2023-05-07T18:47:41;15.00;99.90
5222;DHT22;2630;52.036;8.514;2023-05-07T18:50:07;15.00;99.90
5222;DHT22;2630;52.036;8.514;2023-05-07T18:54:59;14.80;99.90
5222;DHT22;2630;52.036;8.514;2023-05-07T18:59:54;14.70;99.90
5222;DHT22;2630;52.036;8.514;2023-05-07T19:02:20;14.60;99.90
5222;DHT22;2630;52.036;8.514;2023-05-07T19:04:45;14.60;99.90
5222;DHT22;2630;52.036;8.514;2023-05-07T19:07:11;14.60;99.90
5222;DHT22;2630;52.036;8.514;2023-05-07T19:09:37;14.50;99.90
5222;DHT22;2630;52.036;8.514;2023-05-07T19:12:02;14.40;99.90
5222;DHT22;2630;52.036;8.514;2023-05-07T19:14:28;14.30;99.90
5222;DHT22;2630;52.036;8.514;2023-05-07T19:16:54;14.30;99.90
5222;DHT22;2630;52.036;8.514;2023-05-07T19:19:20;14.20;99.90
5222;DHT22;2630;52.036;8.514;2023-05-07T19:21:46;14.20;99.90
5222;DHT22;2630;52.036;8.514;2023-05-07T19:26:38;14.10;99.90
5222;DHT22;2630;52.036;8.514;2023-05-07T19:33:58;13.90;99.90
5222;DHT22;2630;52.036;8.514;2023-05-07T19:41:22;13.80;99.90
5222;DHT22;2630;52.036;8.514;2023-05-07T19:46:14;13.70;99.90
5222;DHT22;2630;52.036;8.514;2023-05-07T19:48:41;13.60;99.90
5222;DHT22;2630;52.036;8.514;2023-05-07T19:51:07;13.50;99.90
5222;DHT22;2630;52.036;8.514;2023-05-07T19:53:33;13.50;99.90
5222;DHT22;2630;52.036;8.514;2023-05-07T19:56:06;13.50;99.90
5222;DHT22;2630;52.036;8.514;2023-05-07T19:58:33;13.40;99.90
5222;DHT22;2630;52.036;8.514;2023-05-07T20:00:59;13.30;99.90
5222;DHT22;2630;52.036;8.514;2023-05-07T20:03:29;13.30;99.90
5222;DHT22;2630;52.036;8.514;2023-05-07T20:08:21;13.20;99.90